Accueil
METAR-TAF:

METAR-TAF

Aéroports :

Keetmanshoop, Namibie

latitude: 26-32S, longitude: 018-07E, altitude: 1067 m

Observation

Le bulletin a été fait il y a 26 minutes, à 11:00 UTC
Vent 4 kt de nord
Température 26°C
Humidité 20%
Pression 1026 hPa

METAR: FYKT 131100Z AUTO 01004KT //// // ////// 26/01 Q1026

Heure: 13:26 (11:26 UTC)

Prévision

Le bulletin a été fait il y a 7 heures et 26 minutes, à 04:00 UTC
Prévision valable du 13 à 06 UTC au 14 à 06 UTC
Vent kt de nord
Visibilité 10 km ou plus
pas de nuages en-dessous de 1500 mètres et pas de cumulonimbus.
Evoluant progressivement
du 13 à 07 UTC au 13 à 09 UTC
Vent 8 kt de nord

TAF: FYKT 130400Z 1306/1406 00000KT CAVOK BECMG 1307/1309 36008KT

Observations et prévisions météorologiques de plus de 4000 aéroports (messages METAR et TAF).

Les stations disponibles sont représentées par des disques jaunes et rouges sur la carte.

Passer la souris dessus pour voir le nom de la station.

Cliquer dessus pour voir les observations et prévisions météorologiques.

Pour changer de carte: cliquez sur les boutons verts avec une croix noire pour zoomer, sur le bouton vert avec un tiret pour effectuer un zoom arrière, ou sur les flèches vertes pour les cartes adjacentes.


METAR-TAF: